Time;durP1;ratioP1;P1;durP2;ratioP2;P2;SDS_P1;SDS_P2;PMS_P1;PMS_P2;Temp;Humidity;BMP_temperature;BMP_pressure;BME280_temperature;BME280_humidity;BME280_pressure;Samples;Min_cycle;Max_cycle;Signal;HPM_P1;HPM_P2
2023/02/01 00:00:17;;;;;;;8.40;1.90;;;;;;;;;;110170;1279;22759;-77
2023/02/01 00:03:05;;;;;;;6.30;1.30;;;;;;;;;;110197;1279;22399;-76
2023/02/01 00:05:32;;;;;;;9.10;1.70;;;;;;;;;;110516;1259;22238;-76
2023/02/01 00:07:59;;;;;;;6.90;1.50;;;;;;;;;;110202;1280;22144;-76
2023/02/01 00:10:26;;;;;;;3.00;0.70;;;;;;;;;;110194;1280;22119;-75
2023/02/01 00:12:53;;;;;;;2.10;0.40;;;;;;;;;;110089;1280;22111;-76
2023/02/01 00:15:20;;;;;;;3.60;0.70;;;;;;;;;;110412;1257;22247;-76
2023/02/01 00:17:47;;;;;;;4.50;1.10;;;;;;;;;;110298;1279;22098;-76
2023/02/01 00:20:14;;;;;;;7.00;1.20;;;;;;;;;;110188;1279;22147;-75
2023/02/01 00:22:41;;;;;;;7.30;1.20;;;;;;;;;;110191;1260;22117;-76
2023/02/01 00:25:09;;;;;;;4.60;0.70;;;;;;;;;;110370;1262;22300;-76
2023/02/01 00:27:36;;;;;;;4.80;0.60;;;;;;;;;;110046;1281;22113;-76
2023/02/01 00:30:05;;;;;;;3.70;0.60;;;;;;;;;;110157;1281;22356;-76
2023/02/01 00:32:32;;;;;;;6.40;0.70;;;;;;;;;;110167;1281;22129;-74
2023/02/01 00:35:00;;;;;;;5.20;0.90;;;;;;;;;;110156;1259;22850;-77
2023/02/01 00:44:35;;;;;;;6.50;1.40;;;;;;;;;;109877;1286;22396;-77
2023/02/01 00:47:02;;;;;;;5.20;1.50;;;;;;;;;;109775;1277;22155;-76
2023/02/01 00:49:31;;;;;;;9.30;1.40;;;;;;;;;;109785;1286;22191;-76
2023/02/01 00:51:58;;;;;;;8.80;1.90;;;;;;;;;;109852;1286;22138;-75
2023/02/01 00:54:26;;;;;;;6.20;1.20;;;;;;;;;;109809;1286;22136;-77
2023/02/01 00:56:53;;;;;;;6.20;1.40;;;;;;;;;;110017;1267;22775;-75
2023/02/01 00:59:21;;;;;;;11.30;1.80;;;;;;;;;;109803;1286;22889;-76
2023/02/01 01:01:49;;;;;;;6.50;1.40;;;;;;;;;;109903;1285;22062;-76
2023/02/01 01:04:17;;;;;;;5.80;1.20;;;;;;;;;;109886;1285;21979;-76
2023/02/01 01:06:45;;;;;;;6.50;1.10;;;;;;;;;;109915;1265;22160;-75
2023/02/01 01:09:22;;;;;;;6.90;1.20;;;;;;;;;;109712;1286;22201;-76
2023/02/01 01:11:50;;;;;;;8.90;1.40;;;;;;;;;;109985;1281;22858;-74
2023/02/01 01:14:19;;;;;;;9.90;1.10;;;;;;;;;;110024;1281;22810;-78
2023/02/01 01:16:50;;;;;;;7.40;1.40;;;;;;;;;;110217;1260;22082;-77
2023/02/01 01:19:18;;;;;;;8.60;1.60;;;;;;;;;;110167;1279;22133;-77
2023/02/01 01:21:45;;;;;;;9.30;1.10;;;;;;;;;;110242;1279;23026;-78
2023/02/01 01:24:13;;;;;;;7.00;1.20;;;;;;;;;;110247;1279;22228;-77
2023/02/01 01:26:42;;;;;;;8.70;1.40;;;;;;;;;;110171;1262;22120;-78
2023/02/01 01:29:22;;;;;;;;;;;;;;;;;;;;;
2023/02/01 01:36:36;;;;;;;8.70;1.10;;;;;;;;;;109826;1267;23080;-76
2023/02/01 01:39:07;;;;;;;8.40;1.50;;;;;;;;;;109794;1286;22392;-77
2023/02/01 01:41:37;;;;;;;9.90;0.90;;;;;;;;;;109731;1286;22264;-76
2023/02/01 01:44:35;;;;;;;10.40;1.40;;;;;;;;;;109787;1286;22333;-77
2023/02/01 01:47:04;;;;;;;8.10;1.60;;;;;;;;;;109947;1267;22168;-77
2023/02/01 01:49:33;;;;;;;11.30;1.40;;;;;;;;;;109777;1286;22216;-76
2023/02/01 01:52:03;;;;;;;10.80;1.20;;;;;;;;;;109790;1286;22901;-76
2023/02/01 01:54:39;;;;;;;11.30;1.40;;;;;;;;;;109882;1286;22265;-76
2023/02/01 01:57:12;;;;;;;10.60;1.00;;;;;;;;;;109863;1269;22156;-75
2023/02/01 01:59:42;;;;;;;7.40;1.60;;;;;;;;;;109799;1286;22191;-76
2023/02/01 02:02:13;;;;;;;7.80;1.30;;;;;;;;;;109887;1286;22161;-77
2023/02/01 02:04:42;;;;;;;11.30;1.40;;;;;;;;;;109839;1286;22172;-76
2023/02/01 02:07:15;;;;;;;10.50;1.40;;;;;;;;;;109912;1267;23059;-76
2023/02/01 02:09:45;;;;;;;10.40;1.50;;;;;;;;;;110027;1281;22110;-77
2023/02/01 02:17:08;;;;;;;9.80;1.50;;;;;;;;;;109801;1264;22232;-77
2023/02/01 02:19:55;;;;;;;8.90;1.60;;;;;;;;;;109660;1287;22147;-79
2023/02/01 02:22:46;;;;;;;13.10;1.30;;;;;;;;;;109803;1287;22238;-76
2023/02/01 02:32:34;;;;;;;13.30;1.50;;;;;;;;;;104204;1300;545049;-79
2023/02/01 02:35:08;;;;;;;9.70;1.10;;;;;;;;;;106385;1286;24187;-84
2023/02/01 02:38:01;;;;;;;10.60;1.50;;;;;;;;;;106075;1285;25298;-82
2023/02/01 02:40:34;;;;;;;11.80;1.50;;;;;;;;;;106382;1286;25416;-82
2023/02/01 02:49:37;;;;;;;11.80;1.20;;;;;;;;;;106404;1285;22551;-80
2023/02/01 03:05:18;;;;;;;7.80;1.20;;;;;;;;;;106838;1276;22580;-78
2023/02/01 03:08:16;;;;;;;9.30;1.40;;;;;;;;;;106761;1279;22527;-79
2023/02/01 03:11:08;;;;;;;8.50;0.80;;;;;;;;;;106824;1257;24221;-79
2023/02/01 03:14:09;;;;;;;10.60;1.20;;;;;;;;;;106825;1261;22570;-80
2023/02/01 03:17:05;;;;;;;14.70;1.60;;;;;;;;;;106814;1278;22530;-83
2023/02/01 03:23:36;;;;;;;;;;;;;;;;;;;;;
2023/02/01 03:26:32;;;;;;;8.90;1.20;;;;;;;;;;106694;1281;25360;-83
2023/02/01 03:29:53;;;;;;;10.00;1.10;;;;;;;;;;106697;1281;24360;-87
2023/02/01 03:32:57;;;;;;;10.00;1.00;;;;;;;;;;105974;1267;22553;-83
2023/02/01 03:36:12;;;;;;;;;;;;;;;;;;;;;
2023/02/01 03:39:21;;;;;;;6.20;1.00;;;;;;;;;;106213;1286;22543;-85
2023/02/01 03:42:36;;;;;;;9.60;1.20;;;;;;;;;;106260;1287;22670;-79
2023/02/01 03:45:24;;;;;;;7.90;0.90;;;;;;;;;;105835;1273;22698;-85
2023/02/01 03:49:07;;;;;;;7.30;1.30;;;;;;;;;;105889;1291;25885;-83
2023/02/01 03:51:34;;;;;;;9.10;1.20;;;;;;;;;;105890;1292;22561;-82
2023/02/01 03:54:23;;;;;;;11.20;1.10;;;;;;;;;;105834;1282;22562;-84
2023/02/01 03:57:41;;;;;;;11.00;1.30;;;;;;;;;;105846;1291;24266;-85
2023/02/01 04:00:30;;;;;;;7.80;1.10;;;;;;;;;;105243;1298;25501;-79
2023/02/01 04:03:07;;;;;;;8.90;1.10;;;;;;;;;;105625;1291;25432;-80
2023/02/01 04:05:48;;;;;;;8.20;1.40;;;;;;;;;;105876;1274;24378;-85
2023/02/01 04:08:46;;;;;;;9.80;1.30;;;;;;;;;;105850;1292;23856;-80
2023/02/01 04:11:23;;;;;;;12.50;1.60;;;;;;;;;;105858;1291;22687;-79
2023/02/01 04:15:05;;;;;;;11.30;1.70;;;;;;;;;;105614;1285;22617;-80
2023/02/01 04:17:56;;;;;;;9.30;1.30;;;;;;;;;;105717;1292;25303;-80
2023/02/01 04:20:26;;;;;;;7.00;1.00;;;;;;;;;;105818;1288;25306;-82
2023/02/01 04:23:23;;;;;;;;;;;;;;;;;;;;;
2023/02/01 04:26:25;;;;;;;;;;;;;;;;;;;;;
2023/02/01 04:29:22;;;;;;;9.40;1.20;;;;;;;;;;106133;1288;21895;-83
2023/02/01 04:32:13;;;;;;;6.70;1.20;;;;;;;;;;106107;1288;24201;-81
2023/02/01 04:35:02;;;;;;;10.70;1.50;;;;;;;;;;106154;1287;25248;-83
2023/02/01 04:38:03;;;;;;;15.30;1.50;;;;;;;;;;106560;1278;22621;-84
2023/02/01 04:41:39;;;;;;;12.90;1.80;;;;;;;;;;106846;1276;25328;-77
2023/02/01 04:44:05;;;;;;;13.90;2.70;;;;;;;;;;106841;1278;22538;-77
2023/02/01 04:46:55;;;;;;;11.20;1.80;;;;;;;;;;106763;1262;25277;-86
2023/02/01 04:49:38;;;;;;;;;;;;;;;;;;;;;
2023/02/01 04:52:27;;;;;;;16.10;3.50;;;;;;;;;;106820;1278;22661;-85
2023/02/01 04:55:14;;;;;;;12.50;2.50;;;;;;;;;;106886;1278;25297;-79
2023/02/01 04:57:53;;;;;;;13.10;2.60;;;;;;;;;;106807;1260;22521;-78
2023/02/01 05:00:57;;;;;;;17.90;3.50;;;;;;;;;;106855;1279;25353;-77
2023/02/01 05:03:44;;;;;;;20.50;5.00;;;;;;;;;;106819;1279;25275;-81
2023/02/01 05:06:45;;;;;;;17.10;3.20;;;;;;;;;;106827;1278;22604;-81
2023/02/01 05:09:31;;;;;;;14.20;2.40;;;;;;;;;;106803;1278;22536;-84
2023/02/01 05:15:50;;;;;;;11.10;1.50;;;;;;;;;;106869;1278;25281;-80
2023/02/01 05:18:42;;;;;;;15.60;2.40;;;;;;;;;;106887;1256;24176;-82
2023/02/01 05:21:15;;;;;;;11.50;1.90;;;;;;;;;;106826;1279;22773;-81
2023/02/01 05:27:21;;;;;;;11.50;2.00;;;;;;;;;;106825;1260;25361;-79
2023/02/01 05:30:44;;;;;;;9.00;1.40;;;;;;;;;;106862;1278;22527;-78
2023/02/01 05:33:29;;;;;;;12.70;1.80;;;;;;;;;;106872;1278;25350;-80
2023/02/01 05:36:21;;;;;;;9.50;1.20;;;;;;;;;;106849;1278;22549;-83
2023/02/01 05:39:20;;;;;;;11.30;1.40;;;;;;;;;;106777;1261;22534;-79
2023/02/01 05:42:06;;;;;;;7.40;1.60;;;;;;;;;;106837;1279;22546;-77
2023/02/01 05:44:46;;;;;;;10.20;1.40;;;;;;;;;;106854;1279;22607;-80
2023/02/01 05:47:37;;;;;;;9.70;1.30;;;;;;;;;;106764;1258;24325;-81
2023/02/01 05:50:31;;;;;;;8.80;1.70;;;;;;;;;;106843;1278;22534;-79
2023/02/01 05:53:12;;;;;;;7.70;1.30;;;;;;;;;;106872;1278;24330;-82
2023/02/01 05:55:39;;;;;;;10.50;1.50;;;;;;;;;;106881;1278;25315;-79
2023/02/01 05:58:12;;;;;;;11.00;1.40;;;;;;;;;;106769;1261;22541;-81
2023/02/01 06:04:32;;;;;;;14.50;1.60;;;;;;;;;;106766;1279;22650;-84
2023/02/01 06:07:38;;;;;;;;;;;;;;;;;;;;;
2023/02/01 06:10:30;;;;;;;11.30;1.90;;;;;;;;;;106864;1257;24369;-84
2023/02/01 06:13:13;;;;;;;;;;;;;;;;;;;;;
2023/02/01 06:16:13;;;;;;;;;;;;;;;;;;;;;
2023/02/01 06:18:44;;;;;;;8.70;1.30;;;;;;;;;;110278;1260;22777;-78
2023/02/01 06:21:23;;;;;;;11.40;1.80;;;;;;;;;;110129;1280;22120;-78
2023/02/01 06:23:53;;;;;;;11.00;1.70;;;;;;;;;;110207;1265;22139;-78
2023/02/01 06:26:23;;;;;;;13.00;1.80;;;;;;;;;;110134;1280;22211;-78
2023/02/01 06:28:49;;;;;;;8.50;1.90;;;;;;;;;;110186;1259;22147;-79
2023/02/01 06:31:22;;;;;;;8.40;1.50;;;;;;;;;;110362;1278;22170;-80
2023/02/01 06:33:50;;;;;;;10.20;1.40;;;;;;;;;;110195;1278;22792;-78
2023/02/01 06:36:20;;;;;;;9.70;1.20;;;;;;;;;;110156;1278;22345;-77
2023/02/01 06:39:20;;;;;;;;;;;;;;;;;;;;;
2023/02/01 06:46:21;;;;;;;10.00;1.60;;;;;;;;;;109189;1294;22065;-77
2023/02/01 06:48:50;;;;;;;9.60;1.70;;;;;;;;;;109074;1270;22796;-78
2023/02/01 06:51:24;;;;;;;10.80;1.40;;;;;;;;;;109213;1292;22157;-79
2023/02/01 06:54:37;;;;;;;9.80;1.70;;;;;;;;;;109347;1292;22157;-78
2023/02/01 06:57:20;;;;;;;;;;;;;;;;;;;;;
2023/02/01 06:59:56;;;;;;;9.30;2.00;;;;;;;;;;109392;1276;22185;-76
2023/02/01 07:02:23;;;;;;;12.10;1.90;;;;;;;;;;109346;1286;22184;-76
2023/02/01 07:04:50;;;;;;;10.70;1.50;;;;;;;;;;109449;1292;22330;-76
2023/02/01 07:07:19;;;;;;;10.00;1.50;;;;;;;;;;109489;1292;22051;-76
2023/02/01 07:09:46;;;;;;;14.60;1.90;;;;;;;;;;109483;1270;22160;-76
2023/02/01 07:12:21;;;;;;;14.10;1.60;;;;;;;;;;109367;1286;22170;-78
2023/02/01 07:14:48;;;;;;;12.20;1.50;;;;;;;;;;109794;1286;22156;-76
2023/02/01 07:17:15;;;;;;;11.30;2.00;;;;;;;;;;109803;1286;21880;-76
2023/02/01 07:19:43;;;;;;;10.70;1.40;;;;;;;;;;110050;1256;22178;-76
2023/02/01 07:22:15;;;;;;;11.60;1.80;;;;;;;;;;110381;1278;22132;-77
2023/02/01 07:24:45;;;;;;;14.10;1.30;;;;;;;;;;110153;1279;22127;-78
2023/02/01 07:27:12;;;;;;;9.90;1.70;;;;;;;;;;110307;1279;22262;-78
2023/02/01 07:29:42;;;;;;;10.30;1.50;;;;;;;;;;110160;1256;22179;-77
2023/02/01 07:32:09;;;;;;;9.70;1.50;;;;;;;;;;110043;1280;22979;-77
2023/02/01 07:34:35;;;;;;;10.10;1.80;;;;;;;;;;110052;1280;22344;-77
2023/02/01 07:37:02;;;;;;;9.20;1.70;;;;;;;;;;110202;1280;22137;-77
2023/02/01 07:39:31;;;;;;;10.50;1.80;;;;;;;;;;110179;1280;22135;-79
2023/02/01 07:41:58;;;;;;;13.10;1.70;;;;;;;;;;110446;1261;21716;-79
2023/02/01 07:44:25;;;;;;;7.10;1.30;;;;;;;;;;110312;1279;22125;-77
2023/02/01 07:46:52;;;;;;;9.30;1.50;;;;;;;;;;110191;1279;22122;-78
2023/02/01 07:49:19;;;;;;;13.40;1.80;;;;;;;;;;110317;1279;22904;-78
2023/02/01 07:51:46;;;;;;;12.70;1.70;;;;;;;;;;110428;1259;22802;-78
2023/02/01 07:54:13;;;;;;;8.90;1.40;;;;;;;;;;110123;1280;22327;-77
2023/02/01 07:56:40;;;;;;;9.70;1.40;;;;;;;;;;110192;1280;22112;-78
2023/02/01 07:59:07;;;;;;;10.90;1.20;;;;;;;;;;110088;1280;21999;-75
2023/02/01 08:01:37;;;;;;;11.50;1.90;;;;;;;;;;110509;1260;22227;-80
2023/02/01 08:04:04;;;;;;;7.40;2.00;;;;;;;;;;110103;1279;22715;-79
2023/02/01 08:06:33;;;;;;;10.90;1.60;;;;;;;;;;110169;1279;22713;-79
2023/02/01 08:09:01;;;;;;;8.50;1.80;;;;;;;;;;110152;1279;22139;-79
2023/02/01 08:11:28;;;;;;;9.10;1.90;;;;;;;;;;110098;1263;22169;-79
2023/02/01 08:13:55;;;;;;;7.80;1.80;;;;;;;;;;110055;1281;22121;-79
2023/02/01 08:16:23;;;;;;;10.20;1.80;;;;;;;;;;110048;1281;23121;-79
2023/02/01 08:18:50;;;;;;;9.80;3.20;;;;;;;;;;110060;1275;22150;-79
2023/02/01 08:21:22;;;;;;;11.30;2.50;;;;;;;;;;110111;1259;22792;-80
2023/02/01 08:23:58;;;;;;;10.40;2.40;;;;;;;;;;110216;1279;22113;-78
2023/02/01 08:26:25;;;;;;;10.40;2.10;;;;;;;;;;110147;1279;22145;-77
2023/02/01 08:28:56;;;;;;;7.10;1.40;;;;;;;;;;110174;1275;22602;-78
2023/02/01 08:31:27;;;;;;;5.80;1.20;;;;;;;;;;110168;1259;22127;-77
2023/02/01 08:33:56;;;;;;;8.00;1.20;;;;;;;;;;110039;1281;22139;-76
2023/02/01 08:36:24;;;;;;;7.80;1.40;;;;;;;;;;110053;1281;22093;-80
2023/02/01 08:38:51;;;;;;;8.30;1.40;;;;;;;;;;110035;1280;22116;-78
2023/02/01 08:41:21;;;;;;;7.90;1.50;;;;;;;;;;110116;1257;22204;-79
2023/02/01 08:43:48;;;;;;;8.70;1.60;;;;;;;;;;110158;1279;22313;-79
2023/02/01 08:46:15;;;;;;;6.50;1.10;;;;;;;;;;110130;1279;22155;-80
2023/02/01 08:51:50;;;;;;;6.00;1.20;;;;;;;;;;110215;1262;22168;-80
2023/02/01 08:54:17;;;;;;;4.60;1.30;;;;;;;;;;110041;1281;21990;-79
2023/02/01 08:56:44;;;;;;;6.20;1.50;;;;;;;;;;110046;1281;22101;-81
2023/02/01 08:59:20;;;;;;;6.80;1.60;;;;;;;;;;110124;1280;22117;-79
2023/02/01 09:01:47;;;;;;;4.90;1.30;;;;;;;;;;110102;1261;22122;-79
2023/02/01 09:04:16;;;;;;;6.90;1.10;;;;;;;;;;110080;1279;22162;-79
2023/02/01 09:07:03;;;;;;;11.10;2.50;;;;;;;;;;110219;1276;22062;-80
2023/02/01 09:09:30;;;;;;;10.80;2.50;;;;;;;;;;110203;1279;22143;-81
2023/02/01 09:11:57;;;;;;;7.80;2.00;;;;;;;;;;110139;1257;22186;-79
2023/02/01 09:14:24;;;;;;;7.90;1.50;;;;;;;;;;110134;1281;22022;-79
2023/02/01 09:16:53;;;;;;;8.50;1.80;;;;;;;;;;110050;1280;22114;-79
2023/02/01 09:19:20;;;;;;;12.20;2.50;;;;;;;;;;110053;1281;22026;-78
2023/02/01 09:21:50;;;;;;;9.00;1.60;;;;;;;;;;110034;1256;23181;-80
2023/02/01 09:24:22;;;;;;;10.10;1.70;;;;;;;;;;110096;1279;22209;-79
2023/02/01 09:27:09;;;;;;;8.60;1.70;;;;;;;;;;110041;1281;22871;-79
2023/02/01 09:29:36;;;;;;;9.60;1.80;;;;;;;;;;110107;1281;22156;-80
2023/02/01 09:32:03;;;;;;;11.40;1.70;;;;;;;;;;110171;1256;22098;-82
2023/02/01 09:34:30;;;;;;;7.10;1.80;;;;;;;;;;110117;1280;22175;-79
2023/02/01 09:36:57;;;;;;;8.80;1.40;;;;;;;;;;110086;1280;22892;-78
2023/02/01 09:39:24;;;;;;;8.60;1.70;;;;;;;;;;110194;1280;22118;-78
2023/02/01 09:42:23;;;;;;;12.00;2.00;;;;;;;;;;110213;1279;22052;-80
2023/02/01 09:52:43;;;;;;;9.70;2.00;;;;;;;;;;110321;1278;22136;-78
2023/02/01 10:03:12;;;;;;;10.40;2.10;;;;;;;;;;110203;1256;22164;-79
2023/02/01 10:05:46;;;;;;;10.70;2.10;;;;;;;;;;110246;1268;23009;-83
2023/02/01 10:08:26;;;;;;;9.20;1.70;;;;;;;;;;110299;1278;22136;-80
2023/02/01 10:14:58;;;;;;;8.10;1.30;;;;;;;;;;110284;1259;22463;-79
2023/02/01 10:21:27;;;;;;;7.50;1.70;;;;;;;;;;110218;1279;22943;-78
2023/02/01 10:24:06;;;;;;;9.20;2.00;;;;;;;;;;110272;1256;22149;-80
2023/02/01 10:26:37;;;;;;;10.00;1.60;;;;;;;;;;110254;1279;22789;-78
2023/02/01 10:36:45;;;;;;;4.80;1.00;;;;;;;;;;110195;1260;23077;-80
2023/02/01 10:39:18;;;;;;;6.70;1.40;;;;;;;;;;110114;1280;23012;-79
2023/02/01 10:41:46;;;;;;;6.10;1.10;;;;;;;;;;110092;1280;22398;-78
2023/02/01 10:44:19;;;;;;;4.90;1.00;;;;;;;;;;110159;1280;22022;-76
2023/02/01 10:46:46;;;;;;;5.70;1.30;;;;;;;;;;110410;1260;22432;-79
2023/02/01 10:49:24;;;;;;;5.10;1.30;;;;;;;;;;110375;1263;22097;-77
2023/02/01 10:51:54;;;;;;;6.30;1.10;;;;;;;;;;110238;1275;22621;-80
2023/02/01 10:54:21;;;;;;;4.40;1.20;;;;;;;;;;110154;1278;22780;-79
2023/02/01 10:56:49;;;;;;;9.00;1.50;;;;;;;;;;110267;1260;22115;-79
2023/02/01 10:59:19;;;;;;;6.40;1.20;;;;;;;;;;110051;1280;22104;-81
2023/02/01 11:01:47;;;;;;;7.10;1.30;;;;;;;;;;110175;1280;22118;-79
2023/02/01 11:04:22;;;;;;;6.30;1.40;;;;;;;;;;110070;1281;23032;-75
2023/02/01 11:06:52;;;;;;;6.90;1.20;;;;;;;;;;110460;1256;22134;-77
2023/02/01 11:09:25;;;;;;;7.20;1.80;;;;;;;;;;110291;1278;22135;-79
2023/02/01 11:12:10;;;;;;;8.00;1.50;;;;;;;;;;110362;1278;22109;-78
2023/02/01 11:18:40;;;;;;;10.70;1.90;;;;;;;;;;110531;1260;22141;-79
2023/02/01 11:25:05;;;;;;;8.50;2.20;;;;;;;;;;110241;1279;22148;-78
2023/02/01 11:27:45;;;;;;;7.30;1.30;;;;;;;;;;110218;1262;22906;-78
2023/02/01 11:30:22;;;;;;;5.40;1.40;;;;;;;;;;110205;1279;22130;-79
2023/02/01 11:33:02;;;;;;;8.40;1.70;;;;;;;;;;110195;1279;22257;-79
2023/02/01 11:35:34;;;;;;;13.30;2.20;;;;;;;;;;110194;1273;22974;-77
2023/02/01 11:38:11;;;;;;;8.20;1.90;;;;;;;;;;110345;1262;22080;-76
2023/02/01 11:40:42;;;;;;;8.70;1.80;;;;;;;;;;110161;1280;22127;-78
2023/02/01 11:43:16;;;;;;;7.20;2.00;;;;;;;;;;110120;1280;22789;-79
2023/02/01 11:45:53;;;;;;;10.30;2.60;;;;;;;;;;110064;1280;22501;-78
2023/02/01 11:48:34;;;;;;;5.60;1.90;;;;;;;;;;110282;1261;22235;-79
2023/02/01 11:51:11;;;;;;;6.70;1.50;;;;;;;;;;110243;1279;22111;-79
2023/02/01 11:53:59;;;;;;;7.90;1.70;;;;;;;;;;110218;1279;22071;-79
2023/02/01 11:56:36;;;;;;;7.40;1.30;;;;;;;;;;110214;1279;22115;-79
2023/02/01 11:59:13;;;;;;;5.70;1.30;;;;;;;;;;110330;1260;22145;-80
2023/02/01 12:01:52;;;;;;;4.10;1.00;;;;;;;;;;110222;1279;22785;-77
2023/02/01 12:04:28;;;;;;;5.60;1.80;;;;;;;;;;110204;1279;22131;-79
2023/02/01 12:07:17;;;;;;;4.20;1.40;;;;;;;;;;110120;1275;22129;-80
2023/02/01 12:09:48;;;;;;;4.20;1.40;;;;;;;;;;110311;1256;22885;-78
2023/02/01 12:16:54;;;;;;;8.00;3.00;;;;;;;;;;109956;1284;22260;-76
2023/02/01 12:19:24;;;;;;;7.80;2.10;;;;;;;;;;109832;1267;22179;-79
2023/02/01 12:22:01;;;;;;;6.40;1.70;;;;;;;;;;109907;1285;22179;-81
2023/02/01 12:24:38;;;;;;;7.60;1.80;;;;;;;;;;109911;1281;22228;-79
2023/02/01 12:27:25;;;;;;;16.90;2.30;;;;;;;;;;109791;1285;22171;-81
2023/02/01 12:30:03;;;;;;;5.90;1.50;;;;;;;;;;109924;1262;22960;-78
2023/02/01 12:32:46;;;;;;;7.10;1.90;;;;;;;;;;109885;1284;22094;-79
2023/02/01 12:35:24;;;;;;;6.10;2.20;;;;;;;;;;109758;1286;22251;-82
2023/02/01 12:38:13;;;;;;;15.00;6.60;;;;;;;;;;109872;1286;22190;-79
2023/02/01 12:41:04;;;;;;;14.20;7.00;;;;;;;;;;109826;1267;22658;-81
2023/02/01 12:43:52;;;;;;;13.30;3.40;;;;;;;;;;109297;1291;22191;-79
2023/02/01 12:46:36;;;;;;;13.70;3.70;;;;;;;;;;109370;1291;22132;-78
2023/02/01 12:49:25;;;;;;;11.90;2.30;;;;;;;;;;109293;1273;22221;-80
2023/02/01 12:51:55;;;;;;;15.40;3.60;;;;;;;;;;109764;1286;22208;-80
2023/02/01 12:54:35;;;;;;;10.00;2.60;;;;;;;;;;109797;1286;22175;-80
2023/02/01 12:57:28;;;;;;;9.40;2.00;;;;;;;;;;109807;1285;22176;-78
2023/02/01 13:00:02;;;;;;;8.20;2.00;;;;;;;;;;109810;1268;22038;-78
2023/02/01 13:02:38;;;;;;;8.50;2.50;;;;;;;;;;109801;1286;22226;-80
2023/02/01 13:05:17;;;;;;;8.70;1.80;;;;;;;;;;109885;1286;22161;-78
2023/02/01 13:07:50;;;;;;;8.40;2.30;;;;;;;;;;109861;1283;22170;-81
2023/02/01 13:10:36;;;;;;;6.00;1.40;;;;;;;;;;109967;1266;22181;-78
2023/02/01 13:13:12;;;;;;;12.20;3.00;;;;;;;;;;109796;1286;22234;-81
2023/02/01 13:15:58;;;;;;;9.60;2.60;;;;;;;;;;109884;1274;22944;-79
2023/02/01 13:18:34;;;;;;;10.40;2.40;;;;;;;;;;109808;1286;22972;-79
2023/02/01 13:21:11;;;;;;;9.00;2.10;;;;;;;;;;110116;1266;22135;-82
2023/02/01 13:23:42;;;;;;;19.10;3.60;;;;;;;;;;110096;1280;22092;-78
2023/02/01 13:33:16;;;;;;;14.20;3.50;;;;;;;;;;103800;1295;545124;-78
2023/02/01 13:36:07;;;;;;;13.90;3.40;;;;;;;;;;106140;1282;24238;-83
2023/02/01 13:38:59;;;;;;;10.00;2.40;;;;;;;;;;106106;1285;22494;-79
2023/02/01 13:42:33;;;;;;;9.10;1.90;;;;;;;;;;106446;1282;23890;-82
2023/02/01 13:45:25;;;;;;;13.10;2.70;;;;;;;;;;105375;1287;22623;-79
2023/02/01 13:48:18;;;;;;;15.00;2.70;;;;;;;;;;104106;1289;2205051;-80
2023/02/01 13:51:11;;;;;;;14.80;3.80;;;;;;;;;;105758;1293;23893;-80
2023/02/01 13:54:06;;;;;;;11.70;2.60;;;;;;;;;;105977;1293;22564;-81
2023/02/01 13:56:59;;;;;;;9.30;2.00;;;;;;;;;;105767;1293;24278;-81
2023/02/01 14:00:08;;;;;;;13.10;2.60;;;;;;;;;;105393;1299;24216;-78
2023/02/01 14:03:21;;;;;;;8.80;2.30;;;;;;;;;;105296;1299;22590;-81
2023/02/01 14:06:23;;;;;;;14.50;3.20;;;;;;;;;;105250;1280;25743;-77
2023/02/01 14:09:22;;;;;;;;;;;;;;;;;;;;;
2023/02/01 14:11:56;;;;;;;12.10;3.40;;;;;;;;;;105708;1295;22640;-79
2023/02/01 14:14:35;;;;;;;17.10;4.50;;;;;;;;;;105699;1288;25363;-79
2023/02/01 14:17:31;;;;;;;13.00;3.60;;;;;;;;;;105758;1294;24282;-79
2023/02/01 14:20:17;;;;;;;13.00;3.50;;;;;;;;;;105741;1294;22548;-86
2023/02/01 14:23:16;;;;;;;8.10;2.40;;;;;;;;;;106026;1288;25444;-82
2023/02/01 14:26:09;;;;;;;8.60;2.10;;;;;;;;;;106275;1268;22547;-79
2023/02/01 14:32:40;;;;;;;;;;;;;;;;;;;;;
2023/02/01 14:35:49;;;;;;;;;;;;;;;;;;;;;
2023/02/01 14:39:10;;;;;;;;;;;;;;;;;;;;;
2023/02/01 14:42:00;;;;;;;12.60;4.50;;;;;;;;;;106418;1283;23122;-82
2023/02/01 14:44:46;;;;;;;11.00;5.10;;;;;;;;;;106453;1260;22666;-83
2023/02/01 14:47:49;;;;;;;12.70;4.40;;;;;;;;;;106408;1283;23833;-82
2023/02/01 14:50:57;;;;;;;13.80;4.90;;;;;;;;;;106596;1283;23879;-80
2023/02/01 14:53:52;;;;;;;15.70;5.80;;;;;;;;;;106447;1283;22543;-81
2023/02/01 14:56:57;;;;;;;;;;;;;;;;;;;;;
2023/02/01 15:00:43;;;;;;;10.70;3.50;;;;;;;;;;106469;1283;22634;-85
2023/02/01 15:02:56;;;;;;;12.20;3.20;;;;;;;;;;105862;1291;24223;-79
2023/02/01 15:05:43;;;;;;;7.10;1.80;;;;;;;;;;105929;1271;22549;-78
2023/02/01 15:08:27;;;;;;;16.60;4.10;;;;;;;;;;105950;1290;24270;-78
2023/02/01 15:11:42;;;;;;;;;;;;;;;;;;;;;
2023/02/01 15:14:50;;;;;;;;;;;;;;;;;;;;;
2023/02/01 15:17:49;;;;;;;11.90;3.50;;;;;;;;;;106334;1267;24377;-84
2023/02/01 15:20:47;;;;;;;15.20;4.90;;;;;;;;;;106379;1286;24208;-84
2023/02/01 15:23:57;;;;;;;13.10;4.50;;;;;;;;;;106370;1286;25233;-81
2023/02/01 15:27:05;;;;;;;;;;;;;;;;;;;;;
2023/02/01 15:30:09;;;;;;;9.80;3.10;;;;;;;;;;106390;1284;22613;-84
2023/02/01 15:33:28;;;;;;;9.80;3.10;;;;;;;;;;106393;1284;22790;-83
2023/02/01 15:36:27;;;;;;;11.00;3.00;;;;;;;;;;106459;1260;24290;-87
2023/02/01 15:39:35;;;;;;;12.40;2.10;;;;;;;;;;106470;1276;24207;-84
2023/02/01 15:42:22;;;;;;;8.80;2.00;;;;;;;;;;106860;1276;22532;-77
2023/02/01 15:45:13;;;;;;;9.00;3.30;;;;;;;;;;106856;1276;22533;-84
2023/02/01 15:48:03;;;;;;;12.70;3.30;;;;;;;;;;107159;1275;22548;-82
2023/02/01 15:51:18;;;;;;;;;;;;;;;;;;;;;
2023/02/01 15:54:50;;;;;;;;;;;;;;;;;;;;;
2023/02/01 15:57:39;;;;;;;11.50;2.30;;;;;;;;;;107137;1256;22529;-86
2023/02/01 16:04:17;;;;;;;9.50;2.50;;;;;;;;;;107158;1275;23912;-83
2023/02/01 16:07:27;;;;;;;10.00;2.00;;;;;;;;;;106765;1264;24360;-82
2023/02/01 16:10:21;;;;;;;11.00;3.50;;;;;;;;;;106435;1282;24426;-81
2023/02/01 16:12:54;;;;;;;10.60;2.70;;;;;;;;;;106581;1281;22710;-84
2023/02/01 16:16:11;;;;;;;;;;;;;;;;;;;;;
2023/02/01 16:19:12;;;;;;;15.90;4.30;;;;;;;;;;106720;1263;24221;-81
2023/02/01 16:22:49;;;;;;;14.00;3.70;;;;;;;;;;106611;1281;26373;-82
2023/02/01 16:25:34;;;;;;;14.90;4.00;;;;;;;;;;106630;1282;24376;-78
2023/02/01 16:28:25;;;;;;;16.00;3.50;;;;;;;;;;106833;1282;22586;-82
2023/02/01 16:32:03;;;;;;;;;;;;;;;;;;;;;
2023/02/01 16:35:03;;;;;;;20.90;4.90;;;;;;;;;;106051;1286;25378;-81
2023/02/01 16:41:34;;;;;;;16.80;4.70;;;;;;;;;;106005;1289;22709;-80
2023/02/01 16:44:12;;;;;;;11.90;3.30;;;;;;;;;;106121;1277;23933;-79
2023/02/01 16:47:33;;;;;;;14.10;3.80;;;;;;;;;;106310;1283;25245;-80
2023/02/01 16:50:13;;;;;;;17.50;4.90;;;;;;;;;;106297;1268;22720;-80
2023/02/01 16:53:09;;;;;;;19.50;5.50;;;;;;;;;;106194;1283;25415;-80
2023/02/01 16:55:49;;;;;;;17.70;5.80;;;;;;;;;;106163;1283;22553;-80
2023/02/01 16:58:46;;;;;;;;;;;;;;;;;;;;;
2023/02/01 17:02:23;;;;;;;16.50;4.20;;;;;;;;;;106088;1283;22801;-79
2023/02/01 17:05:25;;;;;;;14.90;4.60;;;;;;;;;;106011;1283;25421;-82
2023/02/01 17:08:41;;;;;;;;;;;;;;;;;;;;;
2023/02/01 17:11:38;;;;;;;13.40;3.10;;;;;;;;;;109762;1282;22739;-80
2023/02/01 17:14:24;;;;;;;10.80;2.80;;;;;;;;;;110020;1276;22331;-78
2023/02/01 17:17:12;;;;;;;14.30;3.80;;;;;;;;;;109974;1278;22241;-77
2023/02/01 17:19:43;;;;;;;20.00;6.20;;;;;;;;;;110037;1262;22938;-78
2023/02/01 17:22:13;;;;;;;25.80;7.50;;;;;;;;;;110019;1282;22158;-79
2023/02/01 17:25:01;;;;;;;12.90;4.00;;;;;;;;;;110016;1275;22196;-79
2023/02/01 17:27:29;;;;;;;11.30;4.10;;;;;;;;;;109925;1282;22235;-77
2023/02/01 17:37:13;;;;;;;;;;;;;;;;;;;;;
2023/02/01 17:39:54;;;;;;;18.70;6.10;;;;;;;;;;110119;1264;22445;-80
2023/02/01 17:42:56;;;;;;;;;;;;;;;;;;;;;
2023/02/01 17:49:37;;;;;;;13.10;3.10;;;;;;;;;;109685;1264;22419;-78
2023/02/01 17:52:35;;;;;;;13.30;3.50;;;;;;;;;;109635;1287;22130;-80
2023/02/01 17:55:03;;;;;;;13.40;3.20;;;;;;;;;;109677;1287;22156;-78
2023/02/01 17:57:31;;;;;;;13.70;4.10;;;;;;;;;;109741;1287;22172;-78
2023/02/01 18:00:01;;;;;;;15.60;5.30;;;;;;;;;;109700;1267;22171;-78
2023/02/01 18:02:28;;;;;;;17.40;4.80;;;;;;;;;;109739;1287;22497;-78
2023/02/01 18:04:56;;;;;;;18.80;6.70;;;;;;;;;;109768;1287;22684;-77
2023/02/01 18:07:25;;;;;;;15.00;4.50;;;;;;;;;;109751;1287;21907;-77
2023/02/01 18:09:52;;;;;;;12.60;3.90;;;;;;;;;;109854;1264;22165;-79
2023/02/01 18:12:21;;;;;;;13.80;3.50;;;;;;;;;;110054;1282;22394;-81
2023/02/01 18:22:07;;;;;;;22.80;4.90;;;;;;;;;;109847;1267;22177;-78
2023/02/01 18:24:54;;;;;;;17.90;5.00;;;;;;;;;;110027;1281;22824;-79
2023/02/01 18:27:20;;;;;;;18.50;5.00;;;;;;;;;;110054;1281;22171;-80
2023/02/01 18:29:48;;;;;;;15.80;4.60;;;;;;;;;;110043;1281;22532;-79
2023/02/01 18:32:26;;;;;;;15.50;4.70;;;;;;;;;;110080;1259;22257;-79
2023/02/01 18:34:57;;;;;;;13.40;3.80;;;;;;;;;;110020;1272;22985;-81
2023/02/01 18:37:24;;;;;;;13.10;4.10;;;;;;;;;;109969;1281;22169;-81
2023/02/01 18:39:57;;;;;;;11.90;4.20;;;;;;;;;;110033;1281;22161;-79